Pilot No. 4 — WDA5463 — position and weather

sailwx.info

Track history (hours):
 
Tides and Currents Weather Stations Pressure Air Temp Water Temp Dewpoint Dewpoint Depression Visibility Wind Speed Wind Dir Waves Ship Positions

Pilot No. 4

Owner: P E P Inc, FORT LAUDERDALE, FL. More information available from US FCC via Universal Licensing System and Coast Guard Vessel Documentation Center.

Last reported at 2016-May-30 21:33 UTC. Time now 2016-May-30 22:13 UTC.
Position N 26°05' W 080°07'.

MMSI: 495270931.

Date/timePositionNaut miles runAvg speedWind from/ knotsBaromVisibWave heightAir tempDewpointWater temp
2016-May-30 21:33N 26°05' W 080°07'2 1.8
2016-May-30 20:34N 26°05' W 080°05'2 2.0
2016-May-30 19:33N 26°04' W 080°07'1 0.6
2016-May-30 17:33N 26°06' W 080°07'0 0.2
2016-May-30 16:34N 26°05' W 080°07'1 0.1
2016-May-30 11:13N 26°06' W 080°07'1 1.9
2016-May-30 10:33N 26°05' W 080°07'2 2.1
2016-May-30 09:34N 26°06' W 080°05'2 2.3
2016-May-30 08:33N 26°06' W 080°07'0 0.2
2016-May-30 07:33N 26°06' W 080°07'0 0.1
2016-May-30 06:33N 26°06' W 080°07'1 1.5
2016-May-30 05:34N 26°06' W 080°06'1 0.3
2016-May-30 01:33N 26°06' W 080°07'0 0.1
2016-May-30 00:33N 26°06' W 080°07'1 0.7
2016-May-29 23:33N 26°05' W 080°07'0 0.3
2016-May-29 22:33N 26°05' W 080°07'4 3.6
2016-May-29 21:33N 26°05' W 080°03'4 3.7
2016-May-29 20:33N 26°05' W 080°07'0 0.1
2016-May-29 14:34N 26°04' W 080°07'3 2.6
2016-May-29 13:34N 26°05' W 080°04'1 0.7
2016-May-29 12:33N 26°06' W 080°05'2 1.8
2016-May-29 11:33N 26°06' W 080°07'0 0.0
2016-May-29 01:33N 26°06' W 080°07'1 1.3
2016-May-29 00:33N 26°06' W 080°06'1 1.2
2016-May-28 23:33N 26°06' W 080°07'2 1.7
2016-May-28 22:33N 26°06' W 080°05'2 1.6
2016-May-28 21:33N 26°06' W 080°07'4 4.0
2016-May-28 20:33N 26°06' W 080°03'4 3.9
2016-May-28 19:33N 26°05' W 080°07'1 0.7
2016-May-28 17:22N 26°06' W 080°07'2 2.3
2016-May-28 16:33N 26°06' W 080°05'2 0.7
2016-May-28 14:16N 26°06' W 080°07'1 2.0
2016-May-28 13:33N 26°04' W 080°07'2 1.8
2016-May-28 12:33N 26°06' W 080°05'1 1.3
2016-May-28 11:33N 26°05' W 080°07'0 0.4
2016-May-28 10:33N 26°06' W 080°07'4 3.9
2016-May-28 09:34N 26°06' W 080°03'4 3.9
2016-May-28 08:33N 26°05' W 080°07'0 0.3
2016-May-28 07:33N 26°05' W 080°07'1 1.1
2016-May-28 06:33N 26°06' W 080°06'1 1.2
2016-May-28 05:33N 26°05' W 080°07'0 0.1
2016-May-28 04:33N 26°05' W 080°07'1 1.2
2016-May-28 03:33N 26°06' W 080°06'1 0.8
2016-May-28 02:33N 26°06' W 080°07'0 0.4
2016-May-28 01:34N 26°05' W 080°07'0 0.3
2016-May-28 00:33N 26°06' W 080°07'0 0.1
2016-May-27 20:25N 26°06' W 080°07'5 6.3
2016-May-27 19:33N 26°06' W 080°01'5 0.6
2016-May-27 10:13N 26°06' W 080°07'1 1.3
2016-May-27 09:33N 26°05' W 080°07'0 0.0
2016-May-27 08:33N 26°05' W 080°07'0 0.1
2016-May-27 05:33N 26°05' W 080°07'1 1.0
2016-May-27 04:33N 26°04' W 080°07'2 1.3
2016-May-27 03:07N 26°06' W 080°07'0 0.0
2016-May-27 02:17N 26°06' W 080°07'3 3.8
2016-May-27 01:33N 26°06' W 080°04'3 1.3
2016-May-26 23:33N 26°05' W 080°07'2 1.7
2016-May-26 22:33N 26°06' W 080°05'0 0.1
2016-May-26 21:34N 26°06' W 080°05'2 1.6
2016-May-26 20:33N 26°05' W 080°07'0 0.4
2016-May-26 19:33N 26°05' W 080°07'1 0.1
2016-May-26 13:33N 26°05' W 080°07'5 4.5
2016-May-26 12:34N 26°05' W 080°02'5 4.6
2016-May-26 11:33N 26°06' W 080°07'1 0.1
2016-May-26 05:32N 26°06' W 080°07'4 4.5
2016-May-26 04:33N 26°05' W 080°03'2 1.6
2016-May-26 03:34N 26°06' W 080°04'3 0.9
2016-May-26 00:09N 26°06' W 080°07'1 1.5
2016-May-25 23:33N 26°05' W 080°07'1 1.4
2016-May-25 22:34N 26°06' W 080°05'0 0.3
2016-May-25 21:34N 26°06' W 080°05'1 1.4
2016-May-25 20:33N 26°06' W 080°07'1 1.4
2016-May-25 19:33N 26°05' W 080°05'2 0.5
2016-May-25 16:33N 26°05' W 080°07'2 2.1
2016-May-25 15:33N 26°05' W 080°05'3 2.6
2016-May-25 14:33N 26°06' W 080°07'0 0.0
2016-May-25 13:33N 26°06' W 080°07'0 0.2
2016-May-25 12:33N 26°06' W 080°07'1 0.7
2016-May-25 11:34N 26°06' W 080°07'0 0.3
2016-May-25 10:14N 26°06' W 080°07'0 0.5
2016-May-25 09:33N 26°05' W 080°07'1 1.5
2016-May-25 08:33N 26°04' W 080°07'2 0.3
2016-May-25 01:22N 26°06' W 080°07'3 3.3
2016-May-25 00:33N 26°06' W 080°04'1 1.0
2016-May-24 23:33N 26°06' W 080°05'2 1.7
2016-May-24 22:33N 26°05' W 080°07'0 0.1
2016-May-24 20:34N 26°06' W 080°07'0 0.1
2016-May-24 15:33N 26°05' W 080°07'2 1.9
2016-May-24 14:33N 26°04' W 080°08'2 1.9
2016-May-24 13:33N 26°05' W 080°07'0 0.4
2016-May-24 12:33N 26°06' W 080°07'0 0.1
2016-May-24 10:29N 26°06' W 080°07'1 0.6
2016-May-24 09:33N 26°05' W 080°07'1 0.6
2016-May-24 08:33N 26°06' W 080°07'1 1.4
2016-May-24 07:33N 26°04' W 080°07'0 0.1
2016-May-24 06:33N 26°04' W 080°07'2 0.4
2016-May-24 02:33N 26°06' W 080°06'1 1.1
2016-May-24 01:33N 26°05' W 080°07'0 0.2
2016-May-24 00:33N 26°05' W 080°07'0 0.1
2016-May-23 23:33N 26°06' W 080°07'2 2.3
2016-May-23 22:33N 26°06' W 080°05'2 2.3
2016-May-23 21:33N 26°06' W 080°07'0 0.2
2016-May-23 20:17N 26°06' W 080°07'2 3.2
2016-May-23 19:33N 26°06' W 080°05'2 1.8
2016-May-23 18:33N 26°05' W 080°07'1 1.0
2016-May-23 17:33N 26°04' W 080°07'1 1.1
2016-May-23 16:33N 26°06' W 080°07'0 0.2
2016-May-23 15:33N 26°06' W 080°07'2 1.7
2016-May-23 14:33N 26°04' W 080°07'1 1.2
2016-May-23 13:33N 26°05' W 080°07'1 0.8
2016-May-23 12:33N 26°06' W 080°06'0 0.3
2016-May-23 11:33N 26°06' W 080°07'1 0.4
2016-May-23 09:34N 26°06' W 080°06'2 1.7
2016-May-23 08:33N 26°04' W 080°07'0 0.5
2016-May-23 07:32N 26°04' W 080°07'1 0.3
2016-May-23 04:33N 26°05' W 080°07'0 0.0
2016-May-23 03:33N 26°05' W 080°07'1 0.6
2016-May-23 01:14N 26°06' W 080°07'3 4.0
2016-May-23 00:33N 26°06' W 080°04'3 2.4
2016-May-22 23:26N 26°06' W 080°07'1 0.9
2016-May-22 22:33N 26°05' W 080°07'5 4.8
2016-May-22 21:33N 26°05' W 080°02'5 4.6
2016-May-22 20:33N 26°05' W 080°07'1 0.9
2016-May-22 19:33N 26°06' W 080°07'1 0.3
2016-May-22 16:33N 26°05' W 080°07'2 1.5
2016-May-22 15:33N 26°06' W 080°05'2 1.6
2016-May-22 14:33N 26°06' W 080°07'2 1.6
2016-May-22 13:33N 26°04' W 080°07'2 2.2
2016-May-22 12:33N 26°06' W 080°07'1 0.7
2016-May-22 11:33N 26°05' W 080°07'1 0.1
2016-May-22 01:33N 26°06' W 080°07'1 0.5
2016-May-22 00:33N 26°05' W 080°07'1 0.7
2016-May-21 23:33N 26°05' W 080°07'4 4.3
2016-May-21 22:33N 26°07' W 080°03'4 4.0
2016-May-21 21:33N 26°05' W 080°07'1 0.6
2016-May-21 20:34N 26°06' W 080°07'0 0.0
2016-May-21 11:28N 26°06' W 080°07'2 1.8
2016-May-21 10:33N 26°05' W 080°07'2 2.4
2016-May-21 09:34N 26°06' W 080°05'3 0.8
2016-May-21 06:24N 26°06' W 080°07'1 1.3
2016-May-21 05:33N 26°05' W 080°07'1 0.3
2016-May-21 02:14N 26°06' W 080°07'1 1.3
2016-May-21 01:33N 26°05' W 080°07'3 2.8
2016-May-21 00:33N 26°06' W 080°04'1 1.2
2016-May-20 23:33N 26°06' W 080°05'0 0.5
2016-May-20 22:33N 26°06' W 080°06'1 1.0
2016-May-20 21:33N 26°06' W 080°07'  
Track history (hours):
 
Tides and Currents Weather Stations Pressure Air Temp Water Temp Dewpoint Dewpoint Depression Visibility Wind Speed Wind Dir Waves Ship Positions

Pilot No. 4

Owner: P E P Inc, FORT LAUDERDALE, FL. More information available from US FCC via Universal Licensing System and Coast Guard Vessel Documentation Center.

Last reported at 2016-May-30 21:33 UTC. Time now 2016-May-30 22:13 UTC.
Position N 26°05' W 080°07'.

MMSI: 495270931.

Date/timePositionNaut miles runAvg speedWind from/ knotsBaromVisibWave heightAir tempDewpointWater temp
2016-May-30 21:33N 26°05' W 080°07'2 1.8
2016-May-30 20:34N 26°05' W 080°05'2 2.0
2016-May-30 19:33N 26°04' W 080°07'1 0.6
2016-May-30 17:33N 26°06' W 080°07'0 0.2
2016-May-30 16:34N 26°05' W 080°07'1 0.1
2016-May-30 11:13N 26°06' W 080°07'1 1.9
2016-May-30 10:33N 26°05' W 080°07'2 2.1
2016-May-30 09:34N 26°06' W 080°05'2 2.3
2016-May-30 08:33N 26°06' W 080°07'0 0.2
2016-May-30 07:33N 26°06' W 080°07'0 0.1
2016-May-30 06:33N 26°06' W 080°07'1 1.5
2016-May-30 05:34N 26°06' W 080°06'1 0.3
2016-May-30 01:33N 26°06' W 080°07'0 0.1
2016-May-30 00:33N 26°06' W 080°07'1 0.7
2016-May-29 23:33N 26°05' W 080°07'0 0.3
2016-May-29 22:33N 26°05' W 080°07'4 3.6
2016-May-29 21:33N 26°05' W 080°03'4 3.7
2016-May-29 20:33N 26°05' W 080°07'0 0.1
2016-May-29 14:34N 26°04' W 080°07'3 2.6
2016-May-29 13:34N 26°05' W 080°04'1 0.7
2016-May-29 12:33N 26°06' W 080°05'2 1.8
2016-May-29 11:33N 26°06' W 080°07'0 0.0
2016-May-29 01:33N 26°06' W 080°07'1 1.3
2016-May-29 00:33N 26°06' W 080°06'1 1.2
2016-May-28 23:33N 26°06' W 080°07'2 1.7
2016-May-28 22:33N 26°06' W 080°05'2 1.6
2016-May-28 21:33N 26°06' W 080°07'4 4.0
2016-May-28 20:33N 26°06' W 080°03'4 3.9
2016-May-28 19:33N 26°05' W 080°07'1 0.7
2016-May-28 17:22N 26°06' W 080°07'2 2.3
2016-May-28 16:33N 26°06' W 080°05'2 0.7
2016-May-28 14:16N 26°06' W 080°07'1 2.0
2016-May-28 13:33N 26°04' W 080°07'2 1.8
2016-May-28 12:33N 26°06' W 080°05'1 1.3
2016-May-28 11:33N 26°05' W 080°07'0 0.4
2016-May-28 10:33N 26°06' W 080°07'4 3.9
2016-May-28 09:34N 26°06' W 080°03'4 3.9
2016-May-28 08:33N 26°05' W 080°07'0 0.3
2016-May-28 07:33N 26°05' W 080°07'1 1.1
2016-May-28 06:33N 26°06' W 080°06'1 1.2
2016-May-28 05:33N 26°05' W 080°07'0 0.1
2016-May-28 04:33N 26°05' W 080°07'1 1.2
2016-May-28 03:33N 26°06' W 080°06'1 0.8
2016-May-28 02:33N 26°06' W 080°07'0 0.4
2016-May-28 01:34N 26°05' W 080°07'0 0.3
2016-May-28 00:33N 26°06' W 080°07'0 0.1
2016-May-27 20:25N 26°06' W 080°07'5 6.3
2016-May-27 19:33N 26°06' W 080°01'5 0.6
2016-May-27 10:13N 26°06' W 080°07'1 1.3
2016-May-27 09:33N 26°05' W 080°07'0 0.0
2016-May-27 08:33N 26°05' W 080°07'0 0.1
2016-May-27 05:33N 26°05' W 080°07'1 1.0
2016-May-27 04:33N 26°04' W 080°07'2 1.3
2016-May-27 03:07N 26°06' W 080°07'0 0.0
2016-May-27 02:17N 26°06' W 080°07'3 3.8
2016-May-27 01:33N 26°06' W 080°04'3 1.3
2016-May-26 23:33N 26°05' W 080°07'2 1.7
2016-May-26 22:33N 26°06' W 080°05'0 0.1
2016-May-26 21:34N 26°06' W 080°05'2 1.6
2016-May-26 20:33N 26°05' W 080°07'0 0.4
2016-May-26 19:33N 26°05' W 080°07'1 0.1
2016-May-26 13:33N 26°05' W 080°07'5 4.5
2016-May-26 12:34N 26°05' W 080°02'5 4.6
2016-May-26 11:33N 26°06' W 080°07'1 0.1
2016-May-26 05:32N 26°06' W 080°07'4 4.5
2016-May-26 04:33N 26°05' W 080°03'2 1.6
2016-May-26 03:34N 26°06' W 080°04'3 0.9
2016-May-26 00:09N 26°06' W 080°07'1 1.5
2016-May-25 23:33N 26°05' W 080°07'1 1.4
2016-May-25 22:34N 26°06' W 080°05'0 0.3
2016-May-25 21:34N 26°06' W 080°05'1 1.4
2016-May-25 20:33N 26°06' W 080°07'1 1.4
2016-May-25 19:33N 26°05' W 080°05'2 0.5
2016-May-25 16:33N 26°05' W 080°07'2 2.1
2016-May-25 15:33N 26°05' W 080°05'3 2.6
2016-May-25 14:33N 26°06' W 080°07'0 0.0
2016-May-25 13:33N 26°06' W 080°07'0 0.2
2016-May-25 12:33N 26°06' W 080°07'1 0.7
2016-May-25 11:34N 26°06' W 080°07'0 0.3
2016-May-25 10:14N 26°06' W 080°07'0 0.5
2016-May-25 09:33N 26°05' W 080°07'1 1.5
2016-May-25 08:33N 26°04' W 080°07'2 0.3
2016-May-25 01:22N 26°06' W 080°07'3 3.3
2016-May-25 00:33N 26°06' W 080°04'1 1.0
2016-May-24 23:33N 26°06' W 080°05'2 1.7
2016-May-24 22:33N 26°05' W 080°07'0 0.1
2016-May-24 20:34N 26°06' W 080°07'0 0.1
2016-May-24 15:33N 26°05' W 080°07'2 1.9
2016-May-24 14:33N 26°04' W 080°08'2 1.9
2016-May-24 13:33N 26°05' W 080°07'0 0.4
2016-May-24 12:33N 26°06' W 080°07'0 0.1
2016-May-24 10:29N 26°06' W 080°07'1 0.6
2016-May-24 09:33N 26°05' W 080°07'1 0.6
2016-May-24 08:33N 26°06' W 080°07'1 1.4
2016-May-24 07:33N 26°04' W 080°07'0 0.1
2016-May-24 06:33N 26°04' W 080°07'2 0.4
2016-May-24 02:33N 26°06' W 080°06'1 1.1
2016-May-24 01:33N 26°05' W 080°07'0 0.2
2016-May-24 00:33N 26°05' W 080°07'0 0.1
2016-May-23 23:33N 26°06' W 080°07'2 2.3
2016-May-23 22:33N 26°06' W 080°05'2 2.3
2016-May-23 21:33N 26°06' W 080°07'0 0.2
2016-May-23 20:17N 26°06' W 080°07'2 3.2
2016-May-23 19:33N 26°06' W 080°05'2 1.8
2016-May-23 18:33N 26°05' W 080°07'1 1.0
2016-May-23 17:33N 26°04' W 080°07'1 1.1
2016-May-23 16:33N 26°06' W 080°07'0 0.2
2016-May-23 15:33N 26°06' W 080°07'2 1.7
2016-May-23 14:33N 26°04' W 080°07'1 1.2
2016-May-23 13:33N 26°05' W 080°07'1 0.8
2016-May-23 12:33N 26°06' W 080°06'0 0.3
2016-May-23 11:33N 26°06' W 080°07'1 0.4
2016-May-23 09:34N 26°06' W 080°06'2 1.7
2016-May-23 08:33N 26°04' W 080°07'0 0.5
2016-May-23 07:32N 26°04' W 080°07'1 0.3
2016-May-23 04:33N 26°05' W 080°07'0 0.0
2016-May-23 03:33N 26°05' W 080°07'1 0.6
2016-May-23 01:14N 26°06' W 080°07'3 4.0
2016-May-23 00:33N 26°06' W 080°04'3 2.4
2016-May-22 23:26N 26°06' W 080°07'1 0.9
2016-May-22 22:33N 26°05' W 080°07'5 4.8
2016-May-22 21:33N 26°05' W 080°02'5 4.6
2016-May-22 20:33N 26°05' W 080°07'1 0.9
2016-May-22 19:33N 26°06' W 080°07'1 0.3
2016-May-22 16:33N 26°05' W 080°07'2 1.5
2016-May-22 15:33N 26°06' W 080°05'2 1.6
2016-May-22 14:33N 26°06' W 080°07'2 1.6
2016-May-22 13:33N 26°04' W 080°07'2 2.2
2016-May-22 12:33N 26°06' W 080°07'1 0.7
2016-May-22 11:33N 26°05' W 080°07'1 0.1
2016-May-22 01:33N 26°06' W 080°07'1 0.5
2016-May-22 00:33N 26°05' W 080°07'1 0.7
2016-May-21 23:33N 26°05' W 080°07'4 4.3
2016-May-21 22:33N 26°07' W 080°03'4 4.0
2016-May-21 21:33N 26°05' W 080°07'1 0.6
2016-May-21 20:34N 26°06' W 080°07'0 0.0
2016-May-21 11:28N 26°06' W 080°07'2 1.8
2016-May-21 10:33N 26°05' W 080°07'2 2.4
2016-May-21 09:34N 26°06' W 080°05'3 0.8
2016-May-21 06:24N 26°06' W 080°07'1 1.3
2016-May-21 05:33N 26°05' W 080°07'1 0.3
2016-May-21 02:14N 26°06' W 080°07'1 1.3
2016-May-21 01:33N 26°05' W 080°07'3 2.8
2016-May-21 00:33N 26°06' W 080°04'1 1.2
2016-May-20 23:33N 26°06' W 080°05'0 0.5
2016-May-20 22:33N 26°06' W 080°06'1 1.0
2016-May-20 21:33N 26°06' W 080°07'  

Dump ship's entire track history